• Join FlightAware (Why Join?)
  • Login
  • US Flag 
12:34AM EDT


 

Airport Tracker/Info


-or-


 

Live Flight TrackerFlight Track Log ✈ AWE710 ✈ 11-Apr-2013 ✈ KDFW - KPHL

Flight Track Log - Related Links

Times and Time Zones

All times are in EDT time to prevent confusion due to time zone crossing. See the AWE710 flight status page for this flight to view local times or setup timezone preferences in your user account.

Time Position Orientation Groundspeed Altitude Reporting Facility
EDT Latitude Longitude Course Direction KTS MPH feet Rate Location/Type
02:07PM 32.9333 -97.0333 75° East 190 219 2,100  Level Dallas / Fort Worth TRACON
02:08PM 32.9833 -97.0333 360° North 221 254 3,800 2,220 Climbing Dallas / Fort Worth TRACON
02:09PM 32.9980 -96.4364 51° Northeast  Level FlightAware Approximate
02:09PM 33.0500 -97.0167 12° North 248 285 6,800  Level Dallas / Fort Worth TRACON
02:10PM 33.0698 -96.3074 68° East  Level FlightAware Approximate
02:11PM 33.1216 -96.1615 66° East  Level FlightAware Approximate
02:11PM 33.0906 -96.7911 78° East 353 406 10,000  Level Fort Worth Center
02:12PM 33.1658 -96.0124 75° East  Level FlightAware Approximate
02:12PM 33.0900 -96.6794 90° East 366 421 10,000  Level Fort Worth Center
02:13PM 33.0850 -96.5531 93° East 366 421 10,600 1,800 Climbing Fort Worth Center
02:14PM 33.0842 -96.4142 90° East 366 421 13,600 2,460 Climbing Fort Worth Center
02:15PM 33.0975 -96.2853 83° East 379 436 15,600 2,220 Climbing Fort Worth Center
02:16PM 33.1339 -96.1581 71° East 393 452 18,100 2,160 Climbing Fort Worth Center
02:17PM 33.1744 -96.0261 70° East 405 466 20,000 1,860 Climbing Fort Worth Center
02:18PM 33.2125 -95.8939 71° East 412 474 21,900 1,740 Climbing Fort Worth Center
02:19PM 33.2525 -95.7567 71° East 426 490 23,500 1,500 Climbing Fort Worth Center
02:20PM 33.2922 -95.6167 71° East 437 503 24,900 1,200 Climbing Fort Worth Center
02:21PM 33.3300 -95.4817 71° East 447 514 25,900 1,200 Climbing Fort Worth Center
02:22PM 33.3717 -95.3389 71° East 452 520 27,400 1,380 Climbing Fort Worth Center
02:23PM 33.4147 -95.1861 71° East 457 526 28,700 1,080 Climbing Fort Worth Center
02:24PM 33.4600 -95.0356 70° East 470 541 29,600 1,140 Climbing Fort Worth Center
02:25PM 33.5050 -94.8800 71° East 480 552 31,000 1,320 Climbing Fort Worth Center
02:26PM 33.5458 -94.7267 72° East 480 552 32,300 1,080 Climbing Fort Worth Center
02:27PM 33.5883 -94.5758 71° East 480 552 33,200 960 Climbing Fort Worth Center
02:28PM 33.6347 -94.4222 70° East 480 552 34,300 900 Climbing Fort Worth Center
02:29PM 33.6769 -94.2686 72° East 485 558 35,000 720 Climbing Fort Worth Center
02:31PM 33.7847 -94.0311 61° Northeast 496 571 36,300 660 Climbing Memphis Center
02:32PM 33.8558 -93.8864 59° Northeast 496 571 36,800 300 Climbing Memphis Center
02:33PM 33.9289 -93.7369 59° Northeast 501 577 37,000 60 Climbing Memphis Center
02:34PM 33.9994 -93.5917 60° Northeast 501 577 37,000  Level Memphis Center
02:35PM 34.0742 -93.4442 59° Northeast 501 577 37,000  Level Memphis Center
02:36PM 34.1444 -93.2936 61° Northeast 501 577 37,000  Level Memphis Center
02:37PM 34.2211 -93.1428 58° Northeast 506 582 37,000  Level Memphis Center
02:38PM 34.2997 -92.9794 60° Northeast 511 588 37,000  Level Memphis Center
02:39PM 34.3719 -92.8181 61° Northeast 516 594 37,000  Level Memphis Center
02:40PM 34.4436 -92.6717 59° Northeast 521 600 37,000  Level Memphis Center
02:41PM 34.5150 -92.5222 60° Northeast 521 600 37,000  Level Memphis Center
02:42PM 34.5864 -92.3728 60° Northeast 521 600 37,000  Level Memphis Center
02:43PM 34.6658 -92.2256 57° Northeast 521 600 37,000  Level Memphis Center
02:44PM 34.7700 -92.1017 44° Northeast 521 600 37,000  Level Memphis Center
02:45PM 34.8922 -91.9978 35° Northeast 515 593 37,000  Level Memphis Center
02:46PM 35.0106 -91.8986 34° Northeast 520 598 37,000  Level Memphis Center
02:47PM 35.1306 -91.7967 35° Northeast 520 598 37,000  Level Memphis Center
02:48PM 35.2528 -91.6944 34° Northeast 520 598 37,100  Climbing Memphis Center
02:49PM 35.3725 -91.5919 35° Northeast 520 598 37,000 -60 Descending Memphis Center
02:50PM 35.4903 -91.4917 35° Northeast 520 598 37,000  Level Memphis Center
02:51PM 35.6100 -91.3914 34° Northeast 520 598 37,000  Level Memphis Center
02:52PM 35.7150 -91.2981 36° Northeast 527 606 37,000  Level Memphis Center
02:53PM 35.8347 -91.1917 36° Northeast 521 600 37,000  Level Memphis Center
02:54PM 35.9583 -91.0878 34° Northeast 528 608 37,000  Level Memphis Center
02:55PM 36.0819 -90.9836 34° Northeast 533 613 37,000  Level Memphis Center
02:56PM 36.2158 -90.9075 25° Northeast 539 620 37,000  Level Memphis Center
02:57PM 36.3619 -90.8442 19° North 539 620 37,000  Level Memphis Center
02:58PM 36.5019 -90.7803 20° North 539 620 37,000  Level Memphis Center
02:59PM 36.6439 -90.7164 20° North 534 615 37,000  Level Memphis Center
03:00PM 36.8683 -90.6097 21° North 543 625 37,100  Climbing Kansas City Center
03:01PM 37.0106 -90.5428 21° North 543 625 37,000 -60 Descending Kansas City Center
03:02PM 37.1556 -90.4758 20° North 548 631 37,000  Level Kansas City Center
03:03PM 37.2967 -90.4086 21° North 543 625 37,000  Level Kansas City Center
03:05PM 37.4489 -90.3392 20° North 542 624 37,000  Level Kansas City Center
03:06PM 37.5903 -90.2694 21° North 544 626 37,000  Level Kansas City Center
03:07PM 37.7156 -90.1644 34° Northeast 540 621 37,000  Level Kansas City Center
03:08PM 37.8186 -90.0272 46° Northeast 538 619 37,000  Level Kansas City Center
03:09PM 37.9397 -89.8550 48° Northeast 535 616 37,000  Level Kansas City Center
03:10PM 38.0375 -89.7147 48° Northeast 533 613 37,000  Level Kansas City Center
03:11PM 38.1428 -89.5619 49° Northeast 536 617 37,000  Level Kansas City Center
03:12PM 38.2394 -89.4217 49° Northeast 532 612 37,000  Level Kansas City Center
03:13PM 38.3433 -89.2700 49° Northeast 531 611 37,000  Level Kansas City Center
03:14PM 38.4383 -89.1256 50° Northeast 533 613 37,000  Level Kansas City Center
03:15PM 38.5172 -88.9703 57° Northeast 526 605 37,000  Level Kansas City Center
03:16PM 38.6039 -88.8028 56° Northeast 526 605 37,000  Level Kansas City Center
03:17PM 38.6794 -88.6592 56° Northeast 528 608 37,000  Level Kansas City Center
03:18PM 38.7603 -88.5017 57° Northeast 526 605 37,000  Level Kansas City Center
03:19PM 38.8433 -88.3400 57° Northeast 532 612 37,000  Level Kansas City Center
03:20PM 38.9056 -88.2144 57° Northeast 530 610 37,000  Level Indianapolis Center
03:21PM 38.9875 -88.0528 57° Northeast 533 613 37,000  Level Indianapolis Center
03:22PM 39.0653 -87.8894 58° Northeast 533 613 37,000  Level Indianapolis Center
03:23PM 39.1039 -87.7117 74° East 519 597 37,000  Level Indianapolis Center
03:24PM 39.1347 -87.5331 77° East 508 585 37,000  Level Indianapolis Center
03:25PM 39.1667 -87.3561 77° East 504 580 37,000  Level Indianapolis Center
03:26PM 39.1964 -87.1764 78° East 507 583 37,000  Level Indianapolis Center
03:27PM 39.2342 -86.9619 77° East 507 583 37,000  Level Indianapolis Center
03:28PM 39.2639 -86.7825 78° East 508 585 37,000  Level Indianapolis Center
03:29PM 39.2939 -86.6039 78° East 506 582 37,000  Level Indianapolis Center
03:30PM 39.3239 -86.4253 78° East 507 583 37,000  Level Indianapolis Center
03:31PM 39.3542 -86.2458 78° East 507 583 37,000 -180 Level Indianapolis Center
03:32PM 39.3836 -86.0658 78° East 509 586 36,700 -540 Descending Indianapolis Center
03:33PM 39.4125 -85.8844 78° East 511 588 36,000 -360 Descending Indianapolis Center
03:34PM 39.4403 -85.7047 79° East 509 586 36,000  Level Indianapolis Center
03:35PM 39.4747 -85.4953 78° East 508 585 36,000 -180 Level Indianapolis Center
03:36PM 39.5028 -85.3161 78° East 505 581 35,700 -540 Descending Indianapolis Center
03:37PM 39.5297 -85.1378 79° East 502 578 35,000 -360 Descending Indianapolis Center
03:38PM 39.5575 -84.9617 78° East 496 571 35,000 -180 Level Indianapolis Center
03:39PM 39.5833 -84.7825 79° East 500 575 34,700 -780 Descending Indianapolis Center
03:40PM 39.5886 -84.5717 88° East 497 572 33,500 -840 Descending Indianapolis Center
03:41PM 39.5925 -84.3928 88° East 494 568 33,000 -300 Descending Indianapolis Center
03:42PM 39.6061 -84.2150 84° East 493 567 33,000  Level Indianapolis Center
03:43PM 39.6353 -84.0392 78° East 494 568 33,000  Level Indianapolis Center
03:44PM 39.6622 -83.8628 79° East 496 571 33,000 -60 Level Indianapolis Center
03:45PM 39.6889 -83.6869 79° East 496 571 32,900  Descending Indianapolis Center
03:47PM 39.7192 -83.4836 79° East 497 572 33,000  Climbing Indianapolis Center
03:48PM 39.7444 -83.3086 79° East 501 577 33,000  Level Indianapolis Center
03:49PM 39.7714 -83.1339 79° East 497 572 33,000  Level Indianapolis Center
03:50PM 39.7969 -82.9569 79° East 496 571 33,000  Level Indianapolis Center
03:51PM 39.8231 -82.7797 79° East 495 570 33,000  Level Indianapolis Center
03:52PM 39.8522 -82.5731 80° East 494 568 33,000 -60 Level Indianapolis Center
03:53PM 39.8769 -82.3972 80° East 491 565 32,900  Descending Indianapolis Center
03:54PM 39.9008 -82.2203 80° East 493 567 33,000  Climbing Indianapolis Center
03:55PM 39.9253 -82.0442 80° East 491 565 32,900  Descending Indianapolis Center
03:56PM 39.9500 -81.8661 80° East 495 570 33,000 60 Climbing Indianapolis Center
03:57PM 39.9750 -81.6708 80° East 498 573 33,100  Climbing Indianapolis Center
03:58PM 39.9997 -81.4906 80° East 501 577 33,000 -60 Descending Indianapolis Center
03:59PM 40.0225 -81.3111 81° East 499 574 33,000  Level Indianapolis Center
04:00PM 40.0456 -81.1317 80° East 499 574 33,000  Level Indianapolis Center
04:00PM 40.0622 -81.0281 78° East 501 577 33,000  Level Cleveland Center
04:01PM 40.0856 -80.8489 80° East 501 577 33,000 -60 Level Cleveland Center
04:02PM 40.1067 -80.6725 81° East 496 571 32,900  Descending Cleveland Center
04:03PM 40.1297 -80.4989 80° East 496 571 33,000  Climbing Cleveland Center
04:04PM 40.1481 -80.3197 82° East 496 571 33,000  Level Cleveland Center
04:05PM 40.1664 -80.1375 82° East 496 571 33,000  Level Cleveland Center
04:06PM 40.1800 -79.9581 84° East 496 571 33,000  Level Cleveland Center
04:07PM 40.1936 -79.7758 84° East 501 577 33,000  Level Cleveland Center
04:08PM 40.2067 -79.5989 84° East 501 577 33,000  Level Cleveland Center
04:09PM 40.2197 -79.4194 84° East 496 571 33,000 -4,920 Level Cleveland Center
04:15PM 39.8759 -75.2086 84° East 168 193 1,500 -5,700 Descending FlightAware ADS-B
04:15PM 39.8751 -75.2033 101° East 174 200 1,700 2,520 Climbing FlightAware ADS-B
04:15PM 39.8721 -75.1939 113° Southeast 190 219 2,100 2,460 Climbing FlightAware ADS-B
04:15PM 39.8658 -75.1777 117° Southeast 206 237 2,700 2,520 Climbing FlightAware ADS-B
04:16PM 39.8596 -75.1628 118° Southeast 229 264 3,300 2,400 Climbing FlightAware ADS-B
04:16PM 39.8529 -75.1451 116° Southeast 249 287 3,800 2,580 Climbing FlightAware ADS-B
04:16PM 39.8481 -75.1316 115° Southeast 258 297 4,300 3,600 Climbing FlightAware ADS-B
04:16PM 39.8443 -75.1240 123° Southeast 259 298 4,700 3,240 Climbing FlightAware ADS-B
04:16PM 39.8409 -75.1187 130° Southeast 261 300 4,900 2,760 Climbing FlightAware ADS-B
04:16PM 39.8307 -75.1088 143° Southeast 265 305 5,400 3,000 Climbing FlightAware ADS-B
04:16PM 39.8244 -75.1052 156° South 269 310 5,700 3,600 Climbing FlightAware ADS-B
04:16PM 39.8191 -75.1034 165° South 270 311 6,000 3,720 Climbing FlightAware ADS-B
04:17PM 39.8146 -75.1024 170° South 272 313 6,200 3,420 Climbing FlightAware ADS-B
04:17PM 39.8107 -75.1022 178° South 272 313 6,400 4,320 Climbing FlightAware ADS-B
04:17PM 39.8002 -75.1038 187° South 270 311 7,000 4,200 Climbing FlightAware ADS-B
04:17PM 39.7902 -75.1086 200° South 266 306 7,600 3,420 Climbing FlightAware ADS-B
04:17PM 39.7767 -75.1172 206° Southwest 264 304 8,200 2,400 Climbing FlightAware ADS-B
04:17PM 39.7612 -75.1201 188° South 271 312 8,600 1,860 Climbing FlightAware ADS-B
04:17PM 39.7533 -75.1184 171° South 276 318 8,800 1,980 Climbing FlightAware ADS-B
04:17PM 39.7490 -75.1166 162° South 282 325 8,900 1,980 Climbing FlightAware ADS-B
04:18PM 39.7281 -75.1076 162° South 280 322 9,500 1,980 Climbing FlightAware ADS-B
04:18PM 39.7235 -75.1058 163° South 278 320 9,600 1,680 Climbing FlightAware ADS-B
04:18PM 39.7185 -75.1048 171° South 272 313 9,700 1,860 Climbing FlightAware ADS-B
04:18PM 39.6802 -75.1139 190° South 287 330 10,700 1,800 Climbing FlightAware ADS-B
04:19PM 39.6594 -75.1348 218° Southwest 311 358 11,200 1,320 Climbing FlightAware ADS-B
04:19PM 39.6254 -75.1757 223° Southwest 328 377 11,800 720 Climbing FlightAware ADS-B
04:20PM 39.5923 -75.2181 225° Southwest 333 383 12,000 180 Climbing FlightAware ADS-B
04:20PM 39.5583 -75.2624 225° Southwest 331 381 12,000 420 Level FlightAware ADS-B
04:21PM 39.5195 -75.3096 223° Southwest 333 383 12,500 960 Climbing FlightAware ADS-B
04:21PM 39.5096 -75.3171 210° Southwest 339 390 12,700 1,680 Climbing FlightAware ADS-B
04:21PM 39.4895 -75.3260 199° South 348 400 13,100 1,500 Climbing FlightAware ADS-B
04:22PM 39.4394 -75.3350 188° South 358 412 13,800 1,500 Climbing FlightAware ADS-B
04:22PM 39.3838 -75.3436 187° South 368 423 14,700 1,500 Climbing FlightAware ADS-B
04:23PM 39.3286 -75.3528 187° South 372 428 15,500 1,440 Climbing FlightAware ADS-B
04:23PM 39.2723 -75.3626 188° South 380 437 16,300 1,380 Climbing FlightAware ADS-B
04:24PM 39.2198 -75.3721 188° South 382 440 17,000 720 Climbing FlightAware ADS-B
04:24PM 39.1573 -75.3827 187° South 388 447 17,100 1,320 Climbing FlightAware ADS-B
04:25PM 39.0998 -75.3915 187° South 390 449 18,500 2,760 Climbing FlightAware ADS-B
04:26PM 39.0368 -75.4004 186° South 403 464 20,200 2,820 Climbing FlightAware ADS-B
04:26PM 38.9795 -75.4085 186° South 414 476 21,600 2,520 Climbing FlightAware ADS-B
04:27PM 38.9180 -75.4170 186° South 420 483 23,000 2,520 Climbing FlightAware
04:27PM 38.8921 -75.4210 187° South 433 498 23,500 2,520 Climbing FlightAware ADS-B
04:27PM 38.8380 -75.4290 187° South 440 506 24,700 2,580 Climbing FlightAware
04:28PM 38.7984 -75.4342 186° South 444 511 25,500 2,700 Climbing FlightAware ADS-B
04:28PM 38.7014 -75.4476 186° South 454 522 27,500 1,320 Climbing FlightAware ADS-B
04:29PM 38.5750 -75.4660 186° South 476 548 28,000 300 Climbing FlightAware
04:30PM 38.5196 -75.4747 187° South 472 543 28,000  Level FlightAware ADS-B
04:30PM 38.4485 -75.4857 187° South 468 539 28,000  Level FlightAware ADS-B
04:31PM 38.3840 -75.4960 187° South 468 539 28,000  Level FlightAware
04:32PM 38.2814 -75.5427 200° South 469 540 28,000  Level FlightAware ADS-B
04:32PM 38.2614 -75.5551 206° Southwest 462 532 28,000  Level FlightAware ADS-B
04:32PM 38.2027 -75.5914 206° Southwest 462 532 28,000 60 Level FlightAware ADS-B
04:33PM 38.1433 -75.6285 206° Southwest 462 532 28,100 1,200 Climbing FlightAware ADS-B
04:33PM 38.0678 -75.6752 206° Southwest 467 537 29,400 2,280 Climbing FlightAware ADS-B
04:34PM 38.0053 -75.7135 206° Southwest 465 535 30,800 2,040 Climbing FlightAware ADS-B
04:35PM 37.9293 -75.7600 206° Southwest 466 536 31,900 1,080 Climbing FlightAware ADS-B
04:36PM 37.7710 -75.8570 206° Southwest 451 519 33,200 1,320 Climbing FlightAware
04:37PM 37.7060 -75.8970 206° Southwest 446 513 34,700 2,160 Climbing FlightAware
04:37PM 37.6270 -75.9450 206° Southwest 446 513 36,100 900 Climbing FlightAware
04:38PM 37.5550 -75.9880 205° Southwest 446 513 36,100 1,380 Level FlightAware
04:39PM 37.4790 -76.0350 206° Southwest 432 497 38,000 1,200 Climbing FlightAware
04:40PM 37.3625 -76.1061 206° Southwest 437 503 38,000  Level FlightAware ADS-B
04:41PM 37.2467 -76.1753 205° Southwest 433 498 38,000  Level FlightAware ADS-B
04:41PM 37.1862 -76.2101 205° Southwest 432 497 38,000  Level FlightAware ADS-B
04:42PM 37.1151 -76.2508 205° Southwest 431 496 38,000 360 Level FlightAware ADS-B
04:43PM 37.0291 -76.3011 205° Southwest 433 498 38,600 1,020 Climbing FlightAware ADS-B
04:44PM 36.9521 -76.3469 205° Southwest 425 489 39,600 840 Climbing FlightAware ADS-B
04:44PM 36.8555 -76.4055 206° Southwest 429 494 40,000 180 Climbing FlightAware ADS-B
04:45PM 36.7630 -76.4630 206° Southwest 430 495 40,000  Level FlightAware
04:46PM 36.6700 -76.5210 207° Southwest 430 495 40,000  Level FlightAware
04:47PM 36.6100 -76.5590 207° Southwest 430 495 40,000  Level FlightAware
04:48PM 36.5500 -76.5970 207° Southwest 430 495 40,000  Level FlightAware
04:49PM 36.4740 -76.6450 207° Southwest 430 495 40,000  Level FlightAware
04:49PM 36.4140 -76.6830 207° Southwest 430 495 40,000  Level FlightAware